sensor_id;sensor_type;location;lat;lon;timestamp;pressure;altitude;pressure_sealevel;temperature;humidity
50434;BME280;36361;38.954;-9.002;2023-06-26T00:01:05;100929.38;;;23.76;100.00
50434;BME280;36361;38.954;-9.002;2023-06-26T00:02:17;100921.78;;;23.58;100.00
50434;BME280;36361;38.954;-9.002;2023-06-26T00:03:36;100926.06;;;23.50;100.00
50434;BME280;36361;38.954;-9.002;2023-06-26T00:04:43;100918.84;;;23.49;100.00
50434;BME280;36361;38.954;-9.002;2023-06-26T00:05:50;100925.94;;;23.36;100.00
50434;BME280;36361;38.954;-9.002;2023-06-26T00:07:06;100925.78;;;23.22;100.00
50434;BME280;36361;38.954;-9.002;2023-06-26T00:08:18;100920.81;;;22.95;100.00
50434;BME280;36361;38.954;-9.002;2023-06-26T00:09:28;100922.59;;;23.10;100.00
50434;BME280;36361;38.954;-9.002;2023-06-26T00:10:41;100908.31;;;23.46;100.00
50434;BME280;36361;38.954;-9.002;2023-06-26T00:11:51;100906.44;;;23.41;100.00
50434;BME280;36361;38.954;-9.002;2023-06-26T00:13:11;100905.94;;;23.82;100.00
50434;BME280;36361;38.954;-9.002;2023-06-26T00:14:22;100906.41;;;23.89;100.00
50434;BME280;36361;38.954;-9.002;2023-06-26T00:15:38;100902.41;;;23.76;100.00
50434;BME280;36361;38.954;-9.002;2023-06-26T00:17:03;100896.53;;;23.59;100.00
50434;BME280;36361;38.954;-9.002;2023-06-26T00:18:21;100895.75;;;23.77;100.00
50434;BME280;36361;38.954;-9.002;2023-06-26T00:19:29;100889.75;;;23.89;100.00
50434;BME280;36361;38.954;-9.002;2023-06-26T00:20:42;100889.97;;;23.93;100.00
50434;BME280;36361;38.954;-9.002;2023-06-26T00:21:55;100893.09;;;23.86;100.00
50434;BME280;36361;38.954;-9.002;2023-06-26T00:22:59;100888.47;;;24.00;100.00
50434;BME280;36361;38.954;-9.002;2023-06-26T00:24:12;100892.69;;;23.98;100.00
50434;BME280;36361;38.954;-9.002;2023-06-26T00:25:19;100888.84;;;24.12;100.00
50434;BME280;36361;38.954;-9.002;2023-06-26T00:26:46;100890.47;;;24.13;100.00
50434;BME280;36361;38.954;-9.002;2023-06-26T00:27:59;100893.66;;;24.26;100.00
50434;BME280;36361;38.954;-9.002;2023-06-26T00:29:12;100882.06;;;24.00;100.00
50434;BME280;36361;38.954;-9.002;2023-06-26T00:30:19;100888.16;;;24.02;100.00
50434;BME280;36361;38.954;-9.002;2023-06-26T00:31:35;100890.88;;;23.88;100.00
50434;BME280;36361;38.954;-9.002;2023-06-26T00:32:41;100882.34;;;23.61;100.00
50434;BME280;36361;38.954;-9.002;2023-06-26T00:33:54;100898.06;;;23.70;100.00
50434;BME280;36361;38.954;-9.002;2023-06-26T00:36:47;100890.94;;;23.83;100.00
50434;BME280;36361;38.954;-9.002;2023-06-26T00:37:51;100898.91;;;24.08;100.00
50434;BME280;36361;38.954;-9.002;2023-06-26T00:38:58;100892.16;;;24.15;100.00
50434;BME280;36361;38.954;-9.002;2023-06-26T00:40:08;100882.06;;;24.19;100.00
50434;BME280;36361;38.954;-9.002;2023-06-26T00:41:21;100888.66;;;24.23;100.00
50434;BME280;36361;38.954;-9.002;2023-06-26T00:42:24;100893.13;;;24.24;100.00
50434;BME280;36361;38.954;-9.002;2023-06-26T00:43:40;100886.28;;;24.16;100.00
50434;BME280;36361;38.954;-9.002;2023-06-26T00:44:50;100891.38;;;24.28;100.00
50434;BME280;36361;38.954;-9.002;2023-06-26T00:46:03;100880.63;;;23.65;100.00
50434;BME280;36361;38.954;-9.002;2023-06-26T00:47:07;100894.16;;;23.23;100.00
50434;BME280;36361;38.954;-9.002;2023-06-26T00:48:23;100886.25;;;23.60;100.00
50434;BME280;36361;38.954;-9.002;2023-06-26T00:49:37;100892.91;;;24.01;100.00
50434;BME280;36361;38.954;-9.002;2023-06-26T00:50:53;100877.41;;;23.95;100.00
50434;BME280;36361;38.954;-9.002;2023-06-26T00:51:57;100881.53;;;23.79;100.00
50434;BME280;36361;38.954;-9.002;2023-06-26T00:53:06;100886.28;;;23.97;100.00
50434;BME280;36361;38.954;-9.002;2023-06-26T00:54:24;100887.84;;;24.03;100.00
50434;BME280;36361;38.954;-9.002;2023-06-26T00:55:34;100876.81;;;23.98;100.00
50434;BME280;36361;38.954;-9.002;2023-06-26T00:56:42;100884.69;;;23.72;100.00
50434;BME280;36361;38.954;-9.002;2023-06-26T00:57:58;100881.38;;;23.70;100.00
50434;BME280;36361;38.954;-9.002;2023-06-26T00:59:08;100883.56;;;23.92;100.00
50434;BME280;36361;38.954;-9.002;2023-06-26T01:00:34;100889.34;;;23.77;100.00
50434;BME280;36361;38.954;-9.002;2023-06-26T01:01:44;100885.16;;;23.98;100.00
50434;BME280;36361;38.954;-9.002;2023-06-26T01:03:00;100890.09;;;23.59;100.00
50434;BME280;36361;38.954;-9.002;2023-06-26T01:04:10;100883.75;;;23.34;100.00
50434;BME280;36361;38.954;-9.002;2023-06-26T01:05:27;100894.22;;;23.85;100.00
50434;BME280;36361;38.954;-9.002;2023-06-26T01:06:40;100889.78;;;23.41;100.00
50434;BME280;36361;38.954;-9.002;2023-06-26T01:07:50;100889.88;;;23.07;100.00
50434;BME280;36361;38.954;-9.002;2023-06-26T01:08:55;100892.56;;;22.88;100.00
50434;BME280;36361;38.954;-9.002;2023-06-26T01:10:12;100895.53;;;22.63;100.00
50434;BME280;36361;38.954;-9.002;2023-06-26T01:11:28;100897.00;;;22.89;100.00
50434;BME280;36361;38.954;-9.002;2023-06-26T01:12:32;100891.03;;;22.72;100.00
50434;BME280;36361;38.954;-9.002;2023-06-26T01:13:41;100890.91;;;22.87;100.00
50434;BME280;36361;38.954;-9.002;2023-06-26T01:14:42;100898.69;;;22.85;100.00
50434;BME280;36361;38.954;-9.002;2023-06-26T01:16:05;100895.25;;;22.98;100.00
50434;BME280;36361;38.954;-9.002;2023-06-26T01:17:06;100894.22;;;22.89;100.00
50434;BME280;36361;38.954;-9.002;2023-06-26T01:18:11;100888.16;;;22.87;100.00
50434;BME280;36361;38.954;-9.002;2023-06-26T01:19:24;100891.97;;;22.91;100.00
50434;BME280;36361;38.954;-9.002;2023-06-26T01:20:36;100894.59;;;23.07;100.00
50434;BME280;36361;38.954;-9.002;2023-06-26T01:21:59;100894.75;;;22.91;100.00
50434;BME280;36361;38.954;-9.002;2023-06-26T01:24:33;100893.78;;;23.06;100.00
50434;BME280;36361;38.954;-9.002;2023-06-26T01:27:18;100883.16;;;23.37;100.00
50434;BME280;36361;38.954;-9.002;2023-06-26T01:28:39;100884.91;;;23.28;100.00
50434;BME280;36361;38.954;-9.002;2023-06-26T01:29:47;100895.28;;;22.93;100.00
50434;BME280;36361;38.954;-9.002;2023-06-26T01:31:04;100898.66;;;22.90;100.00
50434;BME280;36361;38.954;-9.002;2023-06-26T01:32:15;100893.69;;;22.82;100.00
50434;BME280;36361;38.954;-9.002;2023-06-26T01:33:18;100891.22;;;22.81;100.00
50434;BME280;36361;38.954;-9.002;2023-06-26T01:34:32;100896.53;;;22.77;100.00
50434;BME280;36361;38.954;-9.002;2023-06-26T01:35:36;100905.63;;;22.88;100.00
50434;BME280;36361;38.954;-9.002;2023-06-26T01:38:28;100888.94;;;23.41;100.00
50434;BME280;36361;38.954;-9.002;2023-06-26T01:39:37;100895.59;;;23.40;100.00
50434;BME280;36361;38.954;-9.002;2023-06-26T01:40:50;100894.50;;;23.17;100.00
50434;BME280;36361;38.954;-9.002;2023-06-26T01:41:54;100895.75;;;23.01;100.00
50434;BME280;36361;38.954;-9.002;2023-06-26T01:42:58;100897.09;;;23.08;100.00
50434;BME280;36361;38.954;-9.002;2023-06-26T01:44:33;100891.81;;;23.60;100.00
50434;BME280;36361;38.954;-9.002;2023-06-26T01:48:44;100873.94;;;23.42;100.00
50434;BME280;36361;38.954;-9.002;2023-06-26T01:50:00;100882.88;;;23.58;100.00
50434;BME280;36361;38.954;-9.002;2023-06-26T01:51:09;100880.31;;;23.66;100.00
50434;BME280;36361;38.954;-9.002;2023-06-26T01:52:46;100880.88;;;23.87;100.00
50434;BME280;36361;38.954;-9.002;2023-06-26T01:54:05;100889.72;;;23.70;100.00
50434;BME280;36361;38.954;-9.002;2023-06-26T01:56:44;100883.38;;;24.07;100.00
50434;BME280;36361;38.954;-9.002;2023-06-26T01:58:10;100873.44;;;24.20;100.00
50434;BME280;36361;38.954;-9.002;2023-06-26T01:59:20;100872.75;;;24.09;100.00
50434;BME280;36361;38.954;-9.002;2023-06-26T02:00:41;100869.22;;;24.23;100.00
50434;BME280;36361;38.954;-9.002;2023-06-26T02:02:16;100869.78;;;23.87;100.00
50434;BME280;36361;38.954;-9.002;2023-06-26T02:03:19;100879.53;;;22.89;100.00
50434;BME280;36361;38.954;-9.002;2023-06-26T02:04:23;100864.13;;;23.25;100.00
50434;BME280;36361;38.954;-9.002;2023-06-26T02:05:33;100869.22;;;23.42;100.00
50434;BME280;36361;38.954;-9.002;2023-06-26T02:06:47;100871.09;;;23.71;100.00
50434;BME280;36361;38.954;-9.002;2023-06-26T02:07:51;100869.22;;;23.42;100.00
50434;BME280;36361;38.954;-9.002;2023-06-26T02:09:00;100866.94;;;23.20;100.00
50434;BME280;36361;38.954;-9.002;2023-06-26T02:10:08;100865.00;;;23.45;100.00
50434;BME280;36361;38.954;-9.002;2023-06-26T02:11:30;100870.59;;;23.40;100.00
50434;BME280;36361;38.954;-9.002;2023-06-26T02:12:38;100862.09;;;23.31;100.00
50434;BME280;36361;38.954;-9.002;2023-06-26T02:13:45;100867.06;;;23.10;100.00
50434;BME280;36361;38.954;-9.002;2023-06-26T02:15:13;100857.75;;;23.25;100.00
50434;BME280;36361;38.954;-9.002;2023-06-26T02:16:38;100856.91;;;23.48;100.00
50434;BME280;36361;38.954;-9.002;2023-06-26T02:17:49;100862.13;;;23.07;100.00
50434;BME280;36361;38.954;-9.002;2023-06-26T02:18:53;100856.19;;;22.90;100.00
50434;BME280;36361;38.954;-9.002;2023-06-26T02:20:15;100856.91;;;23.01;100.00
50434;BME280;36361;38.954;-9.002;2023-06-26T02:21:46;100860.31;;;22.29;100.00
50434;BME280;36361;38.954;-9.002;2023-06-26T02:22:53;100857.19;;;22.70;100.00
50434;BME280;36361;38.954;-9.002;2023-06-26T02:24:01;100853.22;;;22.76;100.00
50434;BME280;36361;38.954;-9.002;2023-06-26T02:25:17;100855.41;;;22.84;100.00
50434;BME280;36361;38.954;-9.002;2023-06-26T02:26:22;100853.13;;;22.57;100.00
50434;BME280;36361;38.954;-9.002;2023-06-26T02:27:26;100858.53;;;22.43;100.00
50434;BME280;36361;38.954;-9.002;2023-06-26T02:28:42;100852.41;;;22.47;100.00
50434;BME280;36361;38.954;-9.002;2023-06-26T02:31:26;100850.41;;;22.81;100.00
50434;BME280;36361;38.954;-9.002;2023-06-26T02:32:32;100842.34;;;23.14;100.00
50434;BME280;36361;38.954;-9.002;2023-06-26T02:33:49;100852.00;;;22.92;100.00
50434;BME280;36361;38.954;-9.002;2023-06-26T02:34:54;100849.84;;;22.84;100.00
50434;BME280;36361;38.954;-9.002;2023-06-26T02:36:07;100841.78;;;23.12;100.00
50434;BME280;36361;38.954;-9.002;2023-06-26T02:37:10;100845.88;;;23.19;100.00
50434;BME280;36361;38.954;-9.002;2023-06-26T02:38:20;100849.00;;;23.13;100.00
50434;BME280;36361;38.954;-9.002;2023-06-26T02:39:33;100845.81;;;23.24;100.00
50434;BME280;36361;38.954;-9.002;2023-06-26T02:40:37;100839.44;;;23.24;100.00
50434;BME280;36361;38.954;-9.002;2023-06-26T02:41:41;100848.88;;;23.47;100.00
50434;BME280;36361;38.954;-9.002;2023-06-26T02:42:50;100841.88;;;23.49;100.00
50434;BME280;36361;38.954;-9.002;2023-06-26T02:43:55;100837.84;;;23.42;100.00
50434;BME280;36361;38.954;-9.002;2023-06-26T02:44:58;100838.84;;;23.27;100.00
50434;BME280;36361;38.954;-9.002;2023-06-26T02:46:05;100846.16;;;23.42;100.00
50434;BME280;36361;38.954;-9.002;2023-06-26T02:47:12;100840.28;;;22.37;100.00
50434;BME280;36361;38.954;-9.002;2023-06-26T02:48:22;100848.91;;;22.65;100.00
50434;BME280;36361;38.954;-9.002;2023-06-26T02:49:29;100836.50;;;22.57;100.00
50434;BME280;36361;38.954;-9.002;2023-06-26T02:50:36;100847.34;;;22.54;100.00
50434;BME280;36361;38.954;-9.002;2023-06-26T02:51:44;100845.41;;;22.88;100.00
50434;BME280;36361;38.954;-9.002;2023-06-26T02:53:01;100847.06;;;23.56;100.00
50434;BME280;36361;38.954;-9.002;2023-06-26T02:54:05;100840.00;;;23.69;100.00
50434;BME280;36361;38.954;-9.002;2023-06-26T02:55:15;100842.56;;;23.84;100.00
50434;BME280;36361;38.954;-9.002;2023-06-26T02:56:22;100842.50;;;23.89;100.00
50434;BME280;36361;38.954;-9.002;2023-06-26T02:57:32;100847.56;;;24.20;100.00
50434;BME280;36361;38.954;-9.002;2023-06-26T02:58:45;100849.19;;;23.88;100.00
50434;BME280;36361;38.954;-9.002;2023-06-26T03:00:04;100839.53;;;23.62;100.00
50434;BME280;36361;38.954;-9.002;2023-06-26T03:01:25;100835.59;;;23.87;100.00
50434;BME280;36361;38.954;-9.002;2023-06-26T03:02:42;100833.78;;;23.96;100.00
50434;BME280;36361;38.954;-9.002;2023-06-26T03:03:54;100834.16;;;23.89;100.00
50434;BME280;36361;38.954;-9.002;2023-06-26T03:05:01;100837.28;;;23.64;100.00
50434;BME280;36361;38.954;-9.002;2023-06-26T03:06:14;100837.75;;;23.71;100.00
50434;BME280;36361;38.954;-9.002;2023-06-26T03:07:33;100837.28;;;23.64;100.00
50434;BME280;36361;38.954;-9.002;2023-06-26T03:08:45;100829.88;;;23.97;100.00
50434;BME280;36361;38.954;-9.002;2023-06-26T03:09:54;100834.00;;;23.99;100.00
50434;BME280;36361;38.954;-9.002;2023-06-26T03:11:00;100823.91;;;24.03;100.00
50434;BME280;36361;38.954;-9.002;2023-06-26T03:12:04;100832.34;;;23.61;100.00
50434;BME280;36361;38.954;-9.002;2023-06-26T03:13:22;100832.19;;;23.90;100.00
50434;BME280;36361;38.954;-9.002;2023-06-26T03:14:26;100829.13;;;23.48;100.00
50434;BME280;36361;38.954;-9.002;2023-06-26T03:15:41;100827.31;;;23.58;100.00
50434;BME280;36361;38.954;-9.002;2023-06-26T03:16:47;100825.72;;;23.94;100.00
50434;BME280;36361;38.954;-9.002;2023-06-26T03:18:01;100830.47;;;23.94;100.00
50434;BME280;36361;38.954;-9.002;2023-06-26T03:19:09;100824.81;;;24.18;100.00
50434;BME280;36361;38.954;-9.002;2023-06-26T03:20:36;100826.81;;;24.31;100.00
50434;BME280;36361;38.954;-9.002;2023-06-26T03:21:43;100827.06;;;24.16;100.00
50434;BME280;36361;38.954;-9.002;2023-06-26T03:22:50;100818.44;;;24.17;100.00
50434;BME280;36361;38.954;-9.002;2023-06-26T03:24:04;100825.56;;;24.04;100.00
50434;BME280;36361;38.954;-9.002;2023-06-26T03:25:11;100822.22;;;23.22;100.00
50434;BME280;36361;38.954;-9.002;2023-06-26T03:26:18;100826.13;;;23.69;100.00
50434;BME280;36361;38.954;-9.002;2023-06-26T03:27:40;100825.97;;;22.88;100.00
50434;BME280;36361;38.954;-9.002;2023-06-26T03:28:57;100829.59;;;23.32;100.00
50434;BME280;36361;38.954;-9.002;2023-06-26T03:30:20;100817.66;;;22.83;100.00
50434;BME280;36361;38.954;-9.002;2023-06-26T03:31:36;100817.94;;;23.11;100.00
50434;BME280;36361;38.954;-9.002;2023-06-26T03:32:43;100813.69;;;23.18;100.00
50434;BME280;36361;38.954;-9.002;2023-06-26T03:33:52;100822.44;;;23.49;100.00
50434;BME280;36361;38.954;-9.002;2023-06-26T03:35:14;100806.91;;;23.48;100.00
50434;BME280;36361;38.954;-9.002;2023-06-26T03:36:21;100816.72;;;23.65;100.00
50434;BME280;36361;38.954;-9.002;2023-06-26T03:37:49;100814.31;;;23.34;100.00
50434;BME280;36361;38.954;-9.002;2023-06-26T03:39:17;100822.66;;;23.34;100.00
50434;BME280;36361;38.954;-9.002;2023-06-26T03:40:30;100820.22;;;23.51;100.00
50434;BME280;36361;38.954;-9.002;2023-06-26T03:41:43;100818.75;;;23.59;100.00
50434;BME280;36361;38.954;-9.002;2023-06-26T03:44:28;100816.88;;;23.92;100.00
50434;BME280;36361;38.954;-9.002;2023-06-26T03:45:35;100820.63;;;24.01;100.00
50434;BME280;36361;38.954;-9.002;2023-06-26T03:46:42;100809.63;;;23.53;100.00
50434;BME280;36361;38.954;-9.002;2023-06-26T03:47:58;100822.53;;;23.44;100.00
50434;BME280;36361;38.954;-9.002;2023-06-26T03:49:04;100817.75;;;23.26;100.00
50434;BME280;36361;38.954;-9.002;2023-06-26T03:50:48;100824.31;;;23.35;100.00
50434;BME280;36361;38.954;-9.002;2023-06-26T03:51:47;100817.75;;;22.73;100.00
50434;BME280;36361;38.954;-9.002;2023-06-26T03:52:57;100818.00;;;23.06;100.00
50434;BME280;36361;38.954;-9.002;2023-06-26T03:54:05;100813.53;;;23.52;100.00
50434;BME280;36361;38.954;-9.002;2023-06-26T03:55:18;100817.50;;;23.46;100.00
50434;BME280;36361;38.954;-9.002;2023-06-26T03:56:25;100819.44;;;23.70;100.00
50434;BME280;36361;38.954;-9.002;2023-06-26T03:57:51;100816.34;;;23.47;100.00
50434;BME280;36361;38.954;-9.002;2023-06-26T03:59:13;100819.22;;;23.42;100.00
50434;BME280;36361;38.954;-9.002;2023-06-26T04:01:53;100816.25;;;22.86;100.00
50434;BME280;36361;38.954;-9.002;2023-06-26T04:03:03;100821.56;;;22.82;100.00
50434;BME280;36361;38.954;-9.002;2023-06-26T04:04:11;100821.47;;;22.92;100.00
50434;BME280;36361;38.954;-9.002;2023-06-26T04:05:14;100823.13;;;22.93;100.00
50434;BME280;36361;38.954;-9.002;2023-06-26T04:06:32;100807.91;;;23.15;100.00
50434;BME280;36361;38.954;-9.002;2023-06-26T04:07:37;100816.75;;;23.17;100.00
50434;BME280;36361;38.954;-9.002;2023-06-26T04:08:51;100816.16;;;23.20;100.00
50434;BME280;36361;38.954;-9.002;2023-06-26T04:09:58;100818.41;;;23.18;100.00
50434;BME280;36361;38.954;-9.002;2023-06-26T04:11:12;100822.78;;;23.24;100.00
50434;BME280;36361;38.954;-9.002;2023-06-26T04:12:16;100818.75;;;23.35;100.00
50434;BME280;36361;38.954;-9.002;2023-06-26T04:13:29;100817.44;;;23.27;100.00
50434;BME280;36361;38.954;-9.002;2023-06-26T04:14:32;100822.53;;;23.44;100.00
50434;BME280;36361;38.954;-9.002;2023-06-26T04:15:48;100822.13;;;23.32;100.00
50434;BME280;36361;38.954;-9.002;2023-06-26T04:16:58;100821.13;;;22.99;100.00
50434;BME280;36361;38.954;-9.002;2023-06-26T04:18:14;100819.06;;;23.10;100.00
50434;BME280;36361;38.954;-9.002;2023-06-26T04:19:21;100830.50;;;22.74;100.00
50434;BME280;36361;38.954;-9.002;2023-06-26T04:20:31;100823.19;;;22.83;100.00
50434;BME280;36361;38.954;-9.002;2023-06-26T04:21:34;100827.69;;;22.79;100.00
50434;BME280;36361;38.954;-9.002;2023-06-26T04:22:44;100826.56;;;22.80;100.00
50434;BME280;36361;38.954;-9.002;2023-06-26T04:24:03;100829.56;;;22.84;100.00
50434;BME280;36361;38.954;-9.002;2023-06-26T04:25:31;100821.06;;;23.04;100.00
50434;BME280;36361;38.954;-9.002;2023-06-26T04:26:44;100830.56;;;23.22;100.00
50434;BME280;36361;38.954;-9.002;2023-06-26T04:28:09;100826.44;;;23.43;100.00
50434;BME280;36361;38.954;-9.002;2023-06-26T04:29:16;100826.78;;;23.13;100.00
50434;BME280;36361;38.954;-9.002;2023-06-26T04:30:41;100830.22;;;23.05;100.00
50434;BME280;36361;38.954;-9.002;2023-06-26T04:32:15;100825.38;;;22.91;100.00
50434;BME280;36361;38.954;-9.002;2023-06-26T04:33:31;100827.03;;;22.92;100.00
50434;BME280;36361;38.954;-9.002;2023-06-26T04:34:43;100826.44;;;22.95;100.00
50434;BME280;36361;38.954;-9.002;2023-06-26T04:35:54;100822.78;;;23.24;100.00
50434;BME280;36361;38.954;-9.002;2023-06-26T04:38:37;100821.34;;;23.50;100.00
50434;BME280;36361;38.954;-9.002;2023-06-26T04:39:40;100824.03;;;23.55;100.00
50434;BME280;36361;38.954;-9.002;2023-06-26T04:40:50;100822.56;;;23.39;100.00
50434;BME280;36361;38.954;-9.002;2023-06-26T04:42:00;100820.78;;;23.06;100.00
50434;BME280;36361;38.954;-9.002;2023-06-26T04:43:13;100818.22;;;23.33;100.00
50434;BME280;36361;38.954;-9.002;2023-06-26T04:44:35;100824.56;;;23.58;100.00
50434;BME280;36361;38.954;-9.002;2023-06-26T04:45:38;100826.03;;;23.74;100.00
50434;BME280;36361;38.954;-9.002;2023-06-26T04:47:00;100817.63;;;23.79;100.00
50434;BME280;36361;38.954;-9.002;2023-06-26T04:48:16;100824.38;;;23.73;100.00
50434;BME280;36361;38.954;-9.002;2023-06-26T04:49:29;100827.16;;;23.92;100.00
50434;BME280;36361;38.954;-9.002;2023-06-26T04:50:43;100818.88;;;23.68;100.00
50434;BME280;36361;38.954;-9.002;2023-06-26T04:51:47;100820.00;;;23.67;100.00
50434;BME280;36361;38.954;-9.002;2023-06-26T04:52:51;100818.97;;;24.00;100.00
50434;BME280;36361;38.954;-9.002;2023-06-26T04:54:02;100818.75;;;23.78;100.00
50434;BME280;36361;38.954;-9.002;2023-06-26T04:55:14;100816.41;;;23.85;100.00
50434;BME280;36361;38.954;-9.002;2023-06-26T04:56:21;100819.88;;;23.77;100.00
50434;BME280;36361;38.954;-9.002;2023-06-26T04:58:50;100814.91;;;23.74;100.00
50434;BME280;36361;38.954;-9.002;2023-06-26T04:59:59;100818.22;;;23.76;100.00
50434;BME280;36361;38.954;-9.002;2023-06-26T05:01:03;100817.38;;;23.75;100.00
50434;BME280;36361;38.954;-9.002;2023-06-26T05:02:16;100817.47;;;23.70;100.00
50434;BME280;36361;38.954;-9.002;2023-06-26T05:05:00;100809.66;;;23.72;100.00
50434;BME280;36361;38.954;-9.002;2023-06-26T05:06:13;100816.19;;;23.81;100.00
50434;BME280;36361;38.954;-9.002;2023-06-26T05:07:35;100816.25;;;23.95;100.00
50434;BME280;36361;38.954;-9.002;2023-06-26T05:08:41;100810.94;;;23.80;100.00
50434;BME280;36361;38.954;-9.002;2023-06-26T05:09:54;100825.56;;;24.04;100.00
50434;BME280;36361;38.954;-9.002;2023-06-26T05:11:07;100816.25;;;23.95;100.00
50434;BME280;36361;38.954;-9.002;2023-06-26T05:12:27;100808.47;;;23.97;100.00
50434;BME280;36361;38.954;-9.002;2023-06-26T05:13:36;100813.84;;;24.07;100.00
50434;BME280;36361;38.954;-9.002;2023-06-26T05:14:46;100817.00;;;24.20;100.00
50434;BME280;36361;38.954;-9.002;2023-06-26T05:15:51;100821.22;;;24.17;100.00
50434;BME280;36361;38.954;-9.002;2023-06-26T05:16:55;100807.97;;;24.28;100.00
50434;BME280;36361;38.954;-9.002;2023-06-26T05:19:27;100814.44;;;24.04;100.00
50434;BME280;36361;38.954;-9.002;2023-06-26T05:20:40;100826.84;;;23.93;100.00
50434;BME280;36361;38.954;-9.002;2023-06-26T05:21:53;100815.94;;;24.16;100.00
50434;BME280;36361;38.954;-9.002;2023-06-26T05:23:04;100820.63;;;24.01;100.00
50434;BME280;36361;38.954;-9.002;2023-06-26T05:24:12;100833.63;;;23.87;100.00
50434;BME280;36361;38.954;-9.002;2023-06-26T05:25:26;100820.91;;;24.00;100.00
50434;BME280;36361;38.954;-9.002;2023-06-26T05:26:32;100824.97;;;24.07;100.00
50434;BME280;36361;38.954;-9.002;2023-06-26T05:27:43;100819.41;;;24.07;100.00
50434;BME280;36361;38.954;-9.002;2023-06-26T05:29:02;100825.56;;;24.04;100.00
50434;BME280;36361;38.954;-9.002;2023-06-26T05:30:12;100823.59;;;24.24;100.00
50434;BME280;36361;38.954;-9.002;2023-06-26T05:31:29;100829.06;;;24.29;100.00
50434;BME280;36361;38.954;-9.002;2023-06-26T05:32:40;100826.47;;;24.19;100.00
50434;BME280;36361;38.954;-9.002;2023-06-26T05:33:57;100820.56;;;23.88;100.00
50434;BME280;36361;38.954;-9.002;2023-06-26T05:35:08;100829.25;;;23.81;100.00
50434;BME280;36361;38.954;-9.002;2023-06-26T05:36:16;100815.28;;;23.67;100.00
50434;BME280;36361;38.954;-9.002;2023-06-26T05:37:22;100814.19;;;23.87;100.00
50434;BME280;36361;38.954;-9.002;2023-06-26T05:38:38;100820.94;;;23.81;100.00
50434;BME280;36361;38.954;-9.002;2023-06-26T05:40:08;100812.97;;;23.93;100.00
50434;BME280;36361;38.954;-9.002;2023-06-26T05:41:18;100812.09;;;24.11;100.00
50434;BME280;36361;38.954;-9.002;2023-06-26T05:42:30;100816.16;;;24.19;100.00
50434;BME280;36361;38.954;-9.002;2023-06-26T05:43:39;100816.13;;;24.05;100.00
50434;BME280;36361;38.954;-9.002;2023-06-26T05:44:56;100821.28;;;23.93;100.00
50434;BME280;36361;38.954;-9.002;2023-06-26T05:46:12;100827.38;;;23.95;100.00
50434;BME280;36361;38.954;-9.002;2023-06-26T05:47:22;100822.19;;;24.07;100.00
50434;BME280;36361;38.954;-9.002;2023-06-26T05:48:27;100822.78;;;24.23;100.00
50434;BME280;36361;38.954;-9.002;2023-06-26T05:49:40;100824.91;;;23.94;100.00
50434;BME280;36361;38.954;-9.002;2023-06-26T05:50:56;100823.34;;;23.69;100.00
50434;BME280;36361;38.954;-9.002;2023-06-26T05:52:00;100823.03;;;23.89;100.00
50434;BME280;36361;38.954;-9.002;2023-06-26T05:53:19;100819.34;;;23.94;100.00
50434;BME280;36361;38.954;-9.002;2023-06-26T05:54:28;100825.50;;;23.72;100.00
50434;BME280;36361;38.954;-9.002;2023-06-26T05:55:50;100815.00;;;23.69;100.00
50434;BME280;36361;38.954;-9.002;2023-06-26T05:56:56;100830.53;;;23.70;100.00
50434;BME280;36361;38.954;-9.002;2023-06-26T05:58:02;100818.88;;;23.68;100.00
50434;BME280;36361;38.954;-9.002;2023-06-26T05:59:10;100831.28;;;23.94;100.00
50434;BME280;36361;38.954;-9.002;2023-06-26T06:00:24;100826.34;;;23.91;100.00
50434;BME280;36361;38.954;-9.002;2023-06-26T06:01:51;100821.53;;;23.78;100.00
50434;BME280;36361;38.954;-9.002;2023-06-26T06:03:00;100825.13;;;23.97;100.00
50434;BME280;36361;38.954;-9.002;2023-06-26T06:04:25;100824.06;;;23.74;100.00
50434;BME280;36361;38.954;-9.002;2023-06-26T06:05:32;100824.84;;;23.56;100.00
50434;BME280;36361;38.954;-9.002;2023-06-26T06:06:35;100823.19;;;23.79;100.00
50434;BME280;36361;38.954;-9.002;2023-06-26T06:07:42;100830.31;;;23.66;100.00
50434;BME280;36361;38.954;-9.002;2023-06-26T06:08:46;100836.31;;;23.49;100.00
50434;BME280;36361;38.954;-9.002;2023-06-26T06:09:49;100832.13;;;23.33;100.00
50434;BME280;36361;38.954;-9.002;2023-06-26T06:10:56;100824.97;;;23.27;100.00
50434;BME280;36361;38.954;-9.002;2023-06-26T06:12:05;100824.34;;;23.54;100.00
50434;BME280;36361;38.954;-9.002;2023-06-26T06:13:12;100834.09;;;23.51;100.00
50434;BME280;36361;38.954;-9.002;2023-06-26T06:14:18;100840.63;;;23.42;100.00
50434;BME280;36361;38.954;-9.002;2023-06-26T06:15:22;100831.75;;;23.16;100.00
50434;BME280;36361;38.954;-9.002;2023-06-26T06:16:26;100827.13;;;23.30;100.00
50434;BME280;36361;38.954;-9.002;2023-06-26T06:17:42;100837.66;;;23.33;100.00
50434;BME280;36361;38.954;-9.002;2023-06-26T06:18:45;100832.66;;;23.54;100.00
50434;BME280;36361;38.954;-9.002;2023-06-26T06:19:49;100835.97;;;23.56;100.00
50434;BME280;36361;38.954;-9.002;2023-06-26T06:21:05;100833.53;;;23.73;100.00
50434;BME280;36361;38.954;-9.002;2023-06-26T06:22:27;100838.28;;;23.92;100.00
50434;BME280;36361;38.954;-9.002;2023-06-26T06:23:45;100833.16;;;23.99;100.00
50434;BME280;36361;38.954;-9.002;2023-06-26T06:25:00;100841.19;;;24.00;100.00
50434;BME280;36361;38.954;-9.002;2023-06-26T06:26:04;100836.38;;;24.25;100.00
50434;BME280;36361;38.954;-9.002;2023-06-26T06:27:10;100838.88;;;24.07;100.00
50434;BME280;36361;38.954;-9.002;2023-06-26T06:28:17;100836.97;;;24.22;100.00